METAR Data
IDs: Format: Raw Decoded Include TAF

Data at: 0457 UTC 30 Jun 2022

KECP 300453Z AUTO 12003KT 10SM CLR 24/22 A3016 RMK AO1 LTG DSNT SW SLP223 T02390222 403110233